Time;durP1;ratioP1;P1;durP2;ratioP2;P2;SDS_P1;SDS_P2;PMS_P1;PMS_P2;Temp;Humidity;BMP_temperature;BMP_pressure;BME280_temperature;BME280_humidity;BME280_pressure;Samples;Min_cycle;Max_cycle;Signal;HPM_P1;HPM_P2
2023/06/18 00:02:17;;;;;;;24.88;16.48;;;16.60;99.90;;;;;;4937815;29;20057;-87
2023/06/18 00:04:43;;;;;;;23.55;15.52;;;16.90;99.90;;;;;;4954267;28;20074;-87
2023/06/18 00:07:08;;;;;;;23.42;14.25;;;16.80;99.90;;;;;;4972692;28;20113;-87
2023/06/18 00:09:40;;;;;;;23.02;15.18;;;16.80;99.90;;;;;;4976486;28;20046;-87
2023/06/18 00:12:15;;;;;;;24.05;15.68;;;16.00;99.90;;;;;;4962888;28;20058;-87
2023/06/18 00:14:49;;;;;;;23.92;16.63;;;15.90;99.90;;;;;;4961759;28;20522;-87
2023/06/18 00:17:18;;;;;;;24.98;16.13;;;16.80;99.90;;;;;;4979590;28;20055;-87
2023/06/18 00:19:52;;;;;;;23.80;15.70;;;15.90;99.90;;;;;;4962523;28;20074;-86
2023/06/18 00:22:27;;;;;;;23.08;15.43;;;16.30;99.90;;;;;;4979065;28;20117;-87
2023/06/18 00:24:58;;;;;;;24.27;15.98;;;15.90;99.90;;;;;;4962370;28;20085;-87
2023/06/18 00:27:36;;;;;;;25.00;16.75;;;16.60;99.90;;;;;;4962028;28;20519;-87
2023/06/18 00:30:08;;;;;;;27.13;17.27;;;16.10;99.90;;;;;;4962059;28;20049;-87
2023/06/18 00:32:36;;;;;;;27.02;17.85;;;15.80;99.90;;;;;;4962781;28;20074;-87
2023/06/18 00:35:14;;;;;;;27.40;18.30;;;15.80;99.90;;;;;;4944051;28;20084;-87
2023/06/18 00:37:47;;;;;;;26.88;18.45;;;15.80;99.90;;;;;;4960730;29;20042;-87
2023/06/18 00:43:57;;;;;;;29.10;18.27;;;15.80;99.90;;;;;;4960708;28;20043;-87
2023/06/18 00:46:26;;;;;;;28.63;18.85;;;16.40;99.90;;;;;;4943181;29;20051;-87
2023/06/18 00:48:58;;;;;;;26.98;17.85;;;16.20;99.90;;;;;;4959917;28;20134;-87
2023/06/18 00:51:31;;;;;;;30.20;19.35;;;15.60;99.90;;;;;;4943004;29;20047;-87
2023/06/18 00:53:56;;;;;;;27.83;18.13;;;15.50;99.90;;;;;;4943861;29;20399;-87
2023/06/18 00:56:25;;;;;;;30.42;19.45;;;15.60;99.90;;;;;;4959352;28;20061;-87
2023/06/18 00:58:57;;;;;;;28.05;18.27;;;15.50;99.90;;;;;;4960878;28;20039;-87
2023/06/18 01:01:22;;;;;;;27.67;18.75;;;15.50;99.90;;;;;;4960566;29;20058;-87
2023/06/18 01:03:50;;;;;;;30.92;19.60;;;16.40;99.90;;;;;;4959897;28;20035;-87
2023/06/18 01:06:18;;;;;;;28.23;18.88;;;16.40;99.90;;;;;;4943237;29;20150;-87
2023/06/18 01:08:48;;;;;;;30.83;19.88;;;15.70;99.90;;;;;;4961571;28;20047;-87
2023/06/18 01:11:21;;;;;;;29.02;20.05;;;15.60;99.90;;;;;;4942242;29;20055;-87
2023/06/18 01:13:52;;;;;;;28.73;18.63;;;15.40;99.90;;;;;;4943122;29;20046;-87
2023/06/18 01:16:30;;;;;;;33.72;20.20;;;15.40;99.90;;;;;;4959963;28;20448;-87
2023/06/18 01:18:56;;;;;;;29.63;19.15;;;15.00;99.90;;;;;;4943280;29;20384;-87
2023/06/18 01:21:30;;;;;;;33.35;19.33;;;15.30;99.90;;;;;;4940135;29;20046;-87
2023/06/18 01:24:11;;;;;;;29.70;19.52;;;16.10;99.90;;;;;;4939338;29;20192;-87
2023/06/18 01:26:40;;;;;;;31.88;20.15;;;15.20;99.90;;;;;;4959790;28;20069;-87
2023/06/18 01:29:24;;;;;;;31.63;19.70;;;15.70;99.90;;;;;;4968774;28;20050;-87
2023/06/18 01:31:52;;;;;;;32.83;20.15;;;15.70;99.90;;;;;;4956669;28;20043;-87
2023/06/18 01:34:27;;;;;;;30.98;20.27;;;15.20;99.90;;;;;;4939478;29;20494;-87
2023/06/18 01:37:14;;;;;;;31.55;20.20;;;15.20;99.90;;;;;;4939560;29;20051;-87
2023/06/18 01:40:08;;;;;;;34.80;21.20;;;15.20;99.90;;;;;;4956226;28;20511;-87
2023/06/18 01:42:37;;;;;;;32.30;21.10;;;15.10;99.90;;;;;;4957232;28;20463;-87
2023/06/18 01:45:49;;;;;;;31.40;19.33;;;15.10;99.90;;;;;;4914480;29;20056;-87
2023/06/18 01:48:19;;;;;;;33.05;20.67;;;15.10;99.90;;;;;;4887074;29;20053;-87
2023/06/18 01:50:48;;;;;;;30.60;20.38;;;15.00;99.90;;;;;;4897925;29;20516;-87
2023/06/18 01:53:28;;;;;;;32.42;19.98;;;15.00;99.90;;;;;;4896323;29;20093;-87
2023/06/18 01:55:56;;;;;;;33.80;20.63;;;15.00;99.90;;;;;;4905030;29;20574;-87
2023/06/18 01:58:22;;;;;;;33.88;20.70;;;15.40;99.90;;;;;;4916398;29;20496;-87
2023/06/18 02:00:51;;;;;;;34.97;21.63;;;15.70;99.90;;;;;;4915218;29;20044;-87
2023/06/18 02:03:34;;;;;;;31.92;21.15;;;14.90;99.90;;;;;;4900560;29;20060;-87
2023/06/18 02:06:00;;;;;;;39.13;21.42;;;15.40;99.90;;;;;;4914831;29;20509;-87
2023/06/18 02:08:26;;;;;;;31.88;20.80;;;15.10;99.90;;;;;;4900653;29;20056;-87
2023/06/18 02:10:51;;;;;;;32.88;21.20;;;15.30;99.90;;;;;;4915856;29;20496;-86
2023/06/18 02:13:17;;;;;;;33.83;21.42;;;15.30;99.90;;;;;;4915271;29;20225;-87
2023/06/18 02:15:57;;;;;;;35.70;21.50;;;15.10;99.90;;;;;;4915957;29;20100;-87
2023/06/18 02:18:23;;;;;;;33.20;20.33;;;14.90;99.90;;;;;;4915882;29;20381;-87
2023/06/18 02:20:48;;;;;;;36.35;22.27;;;14.70;99.90;;;;;;4915070;29;20093;-87
2023/06/18 02:23:14;;;;;;;35.22;21.95;;;15.20;99.90;;;;;;4963823;28;20113;-87
2023/06/18 02:25:40;;;;;;;34.67;21.95;;;14.60;99.90;;;;;;4957911;28;20129;-87
2023/06/18 02:28:09;;;;;;;35.50;21.95;;;15.30;99.90;;;;;;4974561;28;20047;-87
2023/06/18 02:30:34;;;;;;;33.17;21.13;;;15.40;99.90;;;;;;4942422;28;20035;-86
2023/06/18 02:33:02;;;;;;;34.22;21.58;;;14.60;99.90;;;;;;5024332;23;20077;-87
2023/06/18 02:35:28;;;;;;;34.60;22.23;;;14.60;99.90;;;;;;4961762;28;20055;-87
2023/06/18 02:37:55;;;;;;;35.10;22.38;;;14.50;99.90;;;;;;4957598;28;20050;-87
2023/06/18 02:40:27;;;;;;;35.15;22.10;;;14.50;99.90;;;;;;4957383;28;20097;-87
2023/06/18 02:42:53;;;;;;;38.97;22.58;;;14.80;99.90;;;;;;4974693;28;20128;-87
2023/06/18 02:45:20;;;;;;;34.53;22.00;;;15.20;99.90;;;;;;4957142;28;20045;-87
2023/06/18 02:47:49;;;;;;;39.13;23.45;;;14.90;99.90;;;;;;4957583;28;20483;-87
2023/06/18 02:50:16;;;;;;;37.10;23.10;;;14.60;99.90;;;;;;4957240;28;20046;-87
2023/06/18 02:52:42;;;;;;;37.92;23.40;;;14.60;99.90;;;;;;4974883;28;20053;-87
2023/06/18 02:55:27;;;;;;;38.55;23.02;;;14.90;99.90;;;;;;4973814;28;20043;-86
2023/06/18 02:57:52;;;;;;;37.72;23.25;;;14.30;99.90;;;;;;4957428;28;20042;-87
2023/06/18 03:00:19;;;;;;;39.35;23.30;;;14.90;99.90;;;;;;4986455;28;20038;-87
2023/06/18 03:02:54;;;;;;;41.13;22.67;;;14.90;99.90;;;;;;4976594;28;20077;-87
2023/06/18 03:05:20;;;;;;;39.58;24.20;;;14.60;99.90;;;;;;4975830;28;20082;-87
2023/06/18 03:07:45;;;;;;;39.10;23.40;;;14.90;99.90;;;;;;4976559;28;20143;-87
2023/06/18 03:10:11;;;;;;;37.10;22.73;;;14.90;99.90;;;;;;4974918;28;20402;-87
2023/06/18 03:12:51;;;;;;;39.60;23.90;;;14.40;99.90;;;;;;4985584;28;20097;-87
2023/06/18 03:15:16;;;;;;;37.97;22.83;;;14.30;99.90;;;;;;4976092;28;20050;-88
2023/06/18 03:17:48;;;;;;;40.17;23.65;;;14.30;99.90;;;;;;5006919;28;20061;-87
2023/06/18 03:20:18;;;;;;;38.08;23.10;;;14.60;99.90;;;;;;4990780;28;20035;-86
2023/06/18 03:22:43;;;;;;;41.70;24.50;;;14.00;99.90;;;;;;4975750;28;20042;-87
2023/06/18 03:25:09;;;;;;;39.38;22.85;;;14.80;99.90;;;;;;4983720;28;20034;-87
2023/06/18 03:27:34;;;;;;;40.17;23.20;;;14.40;99.90;;;;;;4994229;28;20161;-87
2023/06/18 03:30:03;;;;;;;37.95;23.08;;;14.80;99.90;;;;;;4993116;28;20038;-87
2023/06/18 03:32:47;;;;;;;40.53;24.52;;;14.20;99.90;;;;;;4993559;28;20062;-87
2023/06/18 03:35:13;;;;;;;36.70;21.95;;;15.20;99.90;;;;;;4975736;28;20092;-87
2023/06/18 03:37:39;;;;;;;38.33;22.20;;;14.20;99.90;;;;;;4975184;28;20080;-88
2023/06/18 03:40:22;;;;;;;36.20;21.50;;;14.20;99.90;;;;;;4975658;28;20118;-88
2023/06/18 03:42:48;;;;;;;40.28;22.10;;;15.20;99.90;;;;;;4993525;28;20046;-88
2023/06/18 03:45:14;;;;;;;38.00;23.08;;;15.00;99.90;;;;;;4974535;28;20129;-88
2023/06/18 03:47:49;;;;;;;37.47;22.35;;;14.30;99.90;;;;;;4993484;28;20112;-87
2023/06/18 03:50:15;;;;;;;35.92;22.20;;;14.30;99.90;;;;;;4975747;28;20050;-88
2023/06/18 03:52:40;;;;;;;38.55;22.20;;;14.60;99.90;;;;;;4992907;28;20042;-88
2023/06/18 03:55:23;;;;;;;37.40;22.20;;;14.60;99.90;;;;;;4975677;28;20039;-88
2023/06/18 03:57:58;;;;;;;33.50;20.73;;;14.30;99.90;;;;;;4975768;28;20042;-87
2023/06/18 04:00:24;;;;;;;38.17;22.15;;;14.30;99.90;;;;;;4974871;28;20078;-87
2023/06/18 04:03:08;;;;;;;40.30;23.33;;;14.30;99.90;;;;;;4973255;28;20077;-87
2023/06/18 04:05:33;;;;;;;;;;;14.90;99.90;;;;;;4981183;28;20047;-88
2023/06/18 04:08:08;;;;;;;34.75;22.30;;;14.70;99.90;;;;;;4972732;28;19929;-88
2023/06/18 04:10:34;;;;;;;36.50;22.02;;;15.00;99.90;;;;;;4956548;28;20055;-87
2023/06/18 04:13:14;;;;;;;38.80;22.75;;;14.50;99.90;;;;;;4955488;28;20049;-88
2023/06/18 04:15:58;;;;;;;37.35;22.60;;;14.70;99.90;;;;;;4956412;28;20046;-87
2023/06/18 04:18:30;;;;;;;38.63;22.85;;;14.60;99.90;;;;;;4980139;23;20061;-88
2023/06/18 04:20:58;;;;;;;37.25;22.52;;;14.70;99.90;;;;;;4960436;28;20083;-88
2023/06/18 04:23:24;;;;;;;37.03;23.30;;;14.70;99.90;;;;;;4953802;29;20554;-88
2023/06/18 04:26:07;;;;;;;38.13;22.50;;;14.80;99.90;;;;;;4936943;29;20043;-88
2023/06/18 04:28:56;;;;;;;35.75;22.38;;;15.60;99.90;;;;;;4953903;29;20055;-87
2023/06/18 04:31:21;;;;;;;35.83;21.83;;;15.00;99.90;;;;;;4937114;29;20079;-87
2023/06/18 04:33:47;;;;;;;34.35;21.77;;;15.80;99.90;;;;;;4936409;29;20082;-87
2023/06/18 04:36:25;;;;;;;37.30;22.92;;;15.00;99.90;;;;;;4932488;29;20066;-87
2023/06/18 04:38:53;;;;;;;36.90;21.88;;;16.00;99.90;;;;;;4917348;29;20062;-87
2023/06/18 04:41:31;;;;;;;33.58;21.98;;;15.70;99.90;;;;;;4931609;29;20052;-87
2023/06/18 04:44:18;;;;;;;34.58;22.25;;;15.40;99.90;;;;;;4916669;29;20044;-87
2023/06/18 04:46:55;;;;;;;34.45;21.40;;;15.30;99.90;;;;;;4932918;29;20066;-87
2023/06/18 04:49:29;;;;;;;37.47;22.63;;;16.10;99.90;;;;;;4931896;29;20492;-87
2023/06/18 04:51:55;;;;;;;35.72;21.88;;;16.00;99.90;;;;;;4932906;29;20532;-87
2023/06/18 04:54:23;;;;;;;37.00;21.30;;;15.70;99.90;;;;;;4917042;29;20043;-87
2023/06/18 04:57:12;;;;;;;36.42;22.70;;;15.60;99.90;;;;;;4934756;29;20098;-87
2023/06/18 04:59:49;;;;;;;34.25;22.48;;;15.20;99.90;;;;;;4936285;29;20051;-87
2023/06/18 05:02:16;;;;;;;39.17;23.73;;;15.20;99.90;;;;;;4919418;29;20079;-87
2023/06/18 05:04:45;;;;;;;36.78;22.80;;;15.30;99.90;;;;;;4920343;29;20043;-87
2023/06/18 05:07:11;;;;;;;34.72;21.85;;;16.10;99.90;;;;;;4946156;29;20125;-82
2023/06/18 05:09:36;;;;;;;36.50;22.17;;;15.30;99.90;;;;;;4939384;29;20043;-80
2023/06/18 05:12:02;;;;;;;34.83;21.55;;;15.40;99.90;;;;;;4939996;29;20058;-82
2023/06/18 05:14:27;;;;;;;36.17;22.05;;;15.50;99.90;;;;;;4940120;29;20499;-81
2023/06/18 05:16:59;;;;;;;38.95;23.40;;;15.70;99.90;;;;;;4939563;29;20492;-83
2023/06/18 05:19:25;;;;;;;35.80;21.67;;;15.60;99.90;;;;;;4954965;29;20058;-81
2023/06/18 05:21:50;;;;;;;38.55;22.83;;;15.60;99.90;;;;;;4940221;29;20102;-83
2023/06/18 05:24:16;;;;;;;36.30;22.35;;;16.30;99.90;;;;;;4939193;29;20885;-82
2023/06/18 05:26:47;;;;;;;38.65;22.88;;;15.90;99.90;;;;;;4957044;28;20514;-82
2023/06/18 05:29:13;;;;;;;36.33;21.58;;;16.70;99.90;;;;;;4956840;29;20039;-82
2023/06/18 05:31:39;;;;;;;34.13;22.20;;;16.00;99.90;;;;;;4939130;29;20063;-82
2023/06/18 05:34:04;;;;;;;34.88;22.08;;;16.50;99.90;;;;;;4965228;28;20046;-83
2023/06/18 05:36:45;;;;;;;34.55;22.20;;;16.30;99.90;;;;;;4942826;29;20116;-82
2023/06/18 05:39:11;;;;;;;36.88;23.23;;;16.60;99.90;;;;;;4939443;29;20051;-83
2023/06/18 05:41:52;;;;;;;36.78;23.17;;;16.30;99.90;;;;;;4940016;29;20042;-83
2023/06/18 05:44:24;;;;;;;36.90;23.10;;;16.40;99.90;;;;;;4938825;29;20044;-83
2023/06/18 05:46:49;;;;;;;34.30;22.30;;;16.50;99.90;;;;;;4939403;29;20043;-83
2023/06/18 05:49:15;;;;;;;35.75;23.02;;;17.50;99.90;;;;;;4956781;29;20074;-83
2023/06/18 05:51:41;;;;;;;34.63;22.70;;;16.70;99.90;;;;;;4955684;28;20058;-83
2023/06/18 05:54:06;;;;;;;34.97;22.33;;;17.50;99.90;;;;;;4956500;29;20043;-83
2023/06/18 05:56:32;;;;;;;35.78;22.73;;;17.80;99.90;;;;;;4939492;29;20050;-83
2023/06/18 05:59:04;;;;;;;35.40;23.05;;;17.80;99.90;;;;;;4955856;29;20071;-83
2023/06/18 06:01:32;;;;;;;35.85;23.40;;;17.20;99.90;;;;;;4939466;29;20399;-83
2023/06/18 06:03:59;;;;;;;33.45;21.95;;;17.50;99.90;;;;;;4939118;29;20078;-83
2023/06/18 06:06:43;;;;;;;34.30;23.30;;;17.50;99.90;;;;;;4938087;28;20075;-85
2023/06/18 06:09:24;;;;;;;32.95;22.75;;;17.90;99.90;;;;;;4939006;29;20050;-84
2023/06/18 06:11:50;;;;;;;35.97;22.92;;;17.40;99.90;;;;;;4938581;29;20047;-82
2023/06/18 06:14:22;;;;;;;35.28;22.77;;;18.60;99.90;;;;;;4953047;23;20021;-83
2023/06/18 06:17:00;;;;;;;34.30;21.77;;;17.80;99.90;;;;;;5000979;28;20129;-82
2023/06/18 06:19:28;;;;;;;32.53;22.15;;;17.90;99.90;;;;;;4976809;28;20133;-83
2023/06/18 06:22:03;;;;;;;31.23;21.42;;;18.00;99.90;;;;;;4977096;28;20044;-82
2023/06/18 06:24:28;;;;;;;32.08;21.83;;;18.10;99.90;;;;;;4977730;28;20046;-83
2023/06/18 06:26:55;;;;;;;31.80;21.98;;;19.10;99.90;;;;;;4976414;28;20515;-82
2023/06/18 06:29:29;;;;;;;32.58;22.13;;;18.40;99.90;;;;;;4984718;28;20092;-83
2023/06/18 06:31:55;;;;;;;32.88;21.55;;;18.50;99.90;;;;;;4986205;28;20116;-83
2023/06/18 06:34:21;;;;;;;31.40;21.70;;;18.70;99.90;;;;;;5003674;28;20486;-83
2023/06/18 06:36:50;;;;;;;32.90;21.80;;;19.00;99.90;;;;;;5002245;28;20560;-83
2023/06/18 06:39:19;;;;;;;30.90;20.52;;;19.00;99.90;;;;;;5002287;28;20053;-82
2023/06/18 06:41:59;;;;;;;30.83;20.00;;;19.10;99.90;;;;;;4988533;28;20559;-83
2023/06/18 06:44:25;;;;;;;28.15;20.88;;;19.30;99.90;;;;;;5001086;28;20405;-83
2023/06/18 06:46:59;;;;;;;31.05;20.70;;;20.10;99.90;;;;;;5005593;28;20038;-83
2023/06/18 06:49:28;;;;;;;27.63;19.08;;;19.50;99.90;;;;;;4993199;28;20534;-83
2023/06/18 06:52:31;;;;;;;25.25;18.25;;;19.50;99.90;;;;;;5007239;28;20519;-84
2023/06/18 06:55:09;;;;;;;25.13;18.38;;;19.80;99.90;;;;;;5011342;28;20391;-84
2023/06/18 06:57:35;;;;;;;27.63;18.65;;;19.90;99.90;;;;;;4990455;28;20057;-83
2023/06/18 07:00:00;;;;;;;25.75;17.83;;;20.50;99.90;;;;;;5013272;28;20409;-83
2023/06/18 07:02:45;;;;;;;26.83;18.35;;;20.40;99.90;;;;;;5012803;28;20095;-83
2023/06/18 07:05:23;;;;;;;25.35;17.92;;;20.40;99.90;;;;;;5013423;28;20046;-86
2023/06/18 07:07:48;;;;;;;23.45;16.73;;;20.60;99.90;;;;;;4996210;28;20052;-84
2023/06/18 07:10:14;;;;;;;24.77;16.33;;;20.80;99.90;;;;;;5011772;28;20029;-84
2023/06/18 07:12:59;;;;;;;24.50;17.42;;;20.90;99.90;;;;;;5013963;28;20044;-84
2023/06/18 07:15:27;;;;;;;24.55;16.50;;;21.20;99.90;;;;;;5011830;28;20061;-83
2023/06/18 07:18:24;;;;;;;21.05;15.90;;;21.40;99.90;;;;;;5013677;28;20120;-83
2023/06/18 07:20:50;;;;;;;24.23;15.40;;;21.60;99.90;;;;;;5013547;28;20052;-82
2023/06/18 07:23:31;;;;;;;23.30;14.95;;;21.80;99.90;;;;;;4995098;28;20398;-83
2023/06/18 07:25:57;;;;;;;23.10;15.85;;;21.90;99.90;;;;;;5013126;28;20100;-83
2023/06/18 07:28:41;;;;;;;22.48;15.57;;;22.10;99.90;;;;;;4995956;28;20038;-83
2023/06/18 07:31:06;;;;;;;21.98;15.00;;;22.30;99.90;;;;;;4995031;28;20521;-83
2023/06/18 07:33:49;;;;;;;22.33;14.68;;;22.50;99.90;;;;;;5013711;28;20041;-83
2023/06/18 07:36:15;;;;;;;20.95;13.98;;;22.70;99.90;;;;;;5012779;28;20048;-85
2023/06/18 07:39:00;;;;;;;19.65;14.52;;;22.90;99.90;;;;;;4995715;28;20128;-85
2023/06/18 07:41:25;;;;;;;20.50;14.23;;;23.00;99.90;;;;;;4996065;28;20077;-86
2023/06/18 07:44:06;;;;;;;18.90;13.85;;;23.50;99.90;;;;;;4995087;28;20073;-84
2023/06/18 07:46:33;;;;;;;18.52;14.18;;;23.40;99.90;;;;;;5012531;28;20060;-84
2023/06/18 07:48:59;;;;;;;19.83;14.02;;;24.00;99.90;;;;;;4994999;28;20038;-85
2023/06/18 07:54:13;;;;;;;19.17;12.75;;;23.60;99.90;;;;;;5012763;28;20100;-85
2023/06/18 07:56:39;;;;;;;19.33;13.00;;;23.80;99.90;;;;;;4993041;28;20042;-84
2023/06/18 07:59:22;;;;;;;18.83;12.68;;;23.90;99.90;;;;;;5011872;28;20053;-84
2023/06/18 08:01:48;;;;;;;18.65;13.05;;;24.10;99.90;;;;;;4994793;28;20041;-84
2023/06/18 08:04:34;;;;;;;18.08;13.10;;;24.50;99.90;;;;;;5012570;28;20050;-83
2023/06/18 08:07:00;;;;;;;18.23;12.20;;;24.40;99.90;;;;;;4994583;28;20500;-83
2023/06/18 08:09:25;;;;;;;18.88;12.32;;;24.40;99.90;;;;;;4995123;28;20038;-83
2023/06/18 08:11:55;;;;;;;19.05;12.10;;;24.50;99.90;;;;;;5051761;23;20057;-84
2023/06/18 08:14:20;;;;;;;18.48;11.43;;;24.60;99.90;;;;;;4992941;28;20057;-83
2023/06/18 08:16:46;;;;;;;19.65;12.10;;;24.80;99.90;;;;;;4959857;28;20054;-84
2023/06/18 08:19:11;;;;;;;19.63;12.07;;;25.00;99.90;;;;;;4975244;28;20046;-84
2023/06/18 08:21:37;;;;;;;19.35;11.40;;;25.10;99.90;;;;;;4961233;28;20043;-84
2023/06/18 08:24:03;;;;;;;16.83;12.00;;;25.20;99.90;;;;;;4955995;28;20085;-84
2023/06/18 08:26:53;;;;;;;17.55;11.48;;;25.20;99.90;;;;;;4955490;28;20059;-84
2023/06/18 08:29:19;;;;;;;16.10;11.13;;;25.30;99.10;;;;;;4948000;28;20066;-83
2023/06/18 08:32:07;;;;;;;16.45;11.85;;;25.40;99.70;;;;;;4977144;28;20047;-83
2023/06/18 08:37:36;;;;;;;14.85;10.45;;;25.60;98.90;;;;;;4996254;28;20340;-83
2023/06/18 08:40:03;;;;;;;17.48;11.02;;;26.20;99.40;;;;;;4996020;28;20500;-84
2023/06/18 08:42:29;;;;;;;12.90;8.63;;;26.00;98.60;;;;;;4979142;28;20046;-85
2023/06/18 08:45:01;;;;;;;13.88;8.48;;;26.00;97.70;;;;;;4978887;28;20065;-83
2023/06/18 08:47:41;;;;;;;14.48;8.52;;;26.20;96.40;;;;;;4995971;28;20471;-82
2023/06/18 08:50:11;;;;;;;13.13;8.15;;;26.40;95.70;;;;;;4979133;28;20053;-81
2023/06/18 08:52:41;;;;;;;15.02;8.23;;;26.60;95.30;;;;;;4978901;28;20129;-81
2023/06/18 08:55:09;;;;;;;11.57;6.82;;;26.50;94.60;;;;;;4978363;28;20097;-82
2023/06/18 08:58:16;;;;;;;13.75;6.97;;;26.60;94.30;;;;;;4995983;28;20479;-81
2023/06/18 09:00:42;;;;;;;12.07;7.30;;;26.80;92.90;;;;;;4957523;28;20100;-81
2023/06/18 09:03:10;;;;;;;12.98;7.15;;;26.90;93.20;;;;;;4978762;28;20461;-81
2023/06/18 09:05:37;;;;;;;13.32;7.30;;;26.90;92.80;;;;;;4996519;28;20065;-83
2023/06/18 09:08:02;;;;;;;12.07;6.57;;;27.10;92.60;;;;;;4994621;28;20046;-82
2023/06/18 09:10:29;;;;;;;13.43;6.53;;;27.20;92.30;;;;;;4979155;28;20046;-81
2023/06/18 09:12:55;;;;;;;11.98;6.95;;;27.30;91.80;;;;;;4996052;28;20093;-81
2023/06/18 09:15:21;;;;;;;11.93;7.20;;;27.40;91.70;;;;;;4995320;28;20050;-83
2023/06/18 09:17:54;;;;;;;11.98;7.40;;;27.40;91.20;;;;;;4978817;28;20505;-80
2023/06/18 09:20:20;;;;;;;12.98;6.97;;;27.50;90.30;;;;;;4995702;28;20084;-81
2023/06/18 09:22:48;;;;;;;14.00;7.20;;;27.60;88.80;;;;;;4995267;28;20049;-81
2023/06/18 09:25:21;;;;;;;12.43;7.20;;;27.70;89.90;;;;;;4977990;28;20539;-81
2023/06/18 09:27:47;;;;;;;16.42;7.15;;;27.70;89.80;;;;;;4996101;28;20049;-83
2023/06/18 09:30:25;;;;;;;12.02;7.18;;;27.80;89.80;;;;;;4994705;28;20042;-82
2023/06/18 09:32:51;;;;;;;11.68;7.05;;;27.90;88.70;;;;;;4978744;28;20421;-82
2023/06/18 09:35:18;;;;;;;12.00;7.03;;;28.00;88.60;;;;;;4995496;28;20047;-82
2023/06/18 09:38:10;;;;;;;10.50;6.57;;;28.00;87.80;;;;;;5026290;23;20043;-82
2023/06/18 09:40:48;;;;;;;11.27;6.93;;;28.00;84.00;;;;;;4952906;29;20403;-80
2023/06/18 09:43:14;;;;;;;11.45;6.60;;;27.90;83.80;;;;;;4954080;28;20182;-80
2023/06/18 09:45:43;;;;;;;10.95;6.72;;;28.00;86.60;;;;;;4956834;28;20118;-78
2023/06/18 09:48:08;;;;;;;11.52;6.60;;;28.20;86.20;;;;;;4955219;28;20051;-78
2023/06/18 09:50:34;;;;;;;11.07;6.82;;;28.30;85.60;;;;;;4954784;29;20376;-81
2023/06/18 09:53:00;;;;;;;12.32;7.00;;;28.30;85.00;;;;;;4956599;29;20113;-81
2023/06/18 09:55:33;;;;;;;11.55;6.90;;;28.50;85.00;;;;;;4956847;28;20047;-81
2023/06/18 09:58:01;;;;;;;10.98;6.40;;;28.70;83.60;;;;;;4954673;29;20047;-81
2023/06/18 10:00:27;;;;;;;10.50;6.80;;;28.90;83.70;;;;;;4956646;28;20126;-81
2023/06/18 10:03:03;;;;;;;10.68;6.25;;;29.00;83.10;;;;;;4954277;29;20134;-81
2023/06/18 10:05:28;;;;;;;10.80;6.43;;;29.20;82.50;;;;;;4954831;28;20047;-81
2023/06/18 10:07:55;;;;;;;10.73;6.47;;;29.50;81.90;;;;;;4954970;29;20055;-82
2023/06/18 10:10:21;;;;;;;10.48;6.38;;;29.60;80.90;;;;;;4956273;28;20043;-81
2023/06/18 10:12:50;;;;;;;11.63;6.80;;;29.50;81.60;;;;;;4955473;28;20058;-81
2023/06/18 10:15:16;;;;;;;11.70;6.63;;;29.80;81.20;;;;;;4956075;28;20051;-81
2023/06/18 10:17:47;;;;;;;11.38;7.00;;;29.90;81.70;;;;;;4955039;29;20407;-81
2023/06/18 10:20:15;;;;;;;10.98;6.60;;;30.00;81.30;;;;;;4953949;28;20051;-81
2023/06/18 10:22:59;;;;;;;10.50;6.38;;;30.10;80.80;;;;;;4954818;29;20035;-81
2023/06/18 10:25:27;;;;;;;11.18;6.25;;;30.20;79.20;;;;;;4955660;28;20115;-81
2023/06/18 10:27:55;;;;;;;10.15;6.40;;;30.20;80.10;;;;;;4955881;28;20051;-81
2023/06/18 10:30:21;;;;;;;10.95;6.32;;;30.30;80.00;;;;;;4954456;28;20134;-81
2023/06/18 10:32:47;;;;;;;11.35;6.68;;;30.30;79.60;;;;;;4954320;29;20082;-81
2023/06/18 10:35:14;;;;;;;10.82;6.65;;;30.40;78.90;;;;;;4954735;28;20061;-81
2023/06/18 10:37:43;;;;;;;10.70;6.72;;;30.30;77.60;;;;;;4970739;28;20111;-81
2023/06/18 10:40:10;;;;;;;12.05;6.72;;;30.10;77.70;;;;;;4956819;28;20569;-83
2023/06/18 10:42:36;;;;;;;9.85;6.18;;;30.00;77.20;;;;;;4958553;28;20053;-82
2023/06/18 10:45:15;;;;;;;11.10;6.10;;;30.20;76.80;;;;;;4974638;28;20047;-82
2023/06/18 10:47:42;;;;;;;10.38;6.35;;;30.30;75.90;;;;;;4974246;28;20043;-82
2023/06/18 10:50:08;;;;;;;10.43;6.18;;;30.10;76.20;;;;;;4957486;28;20043;-82
2023/06/18 10:52:35;;;;;;;10.32;6.20;;;30.10;76.80;;;;;;4973683;28;20051;-82
2023/06/18 10:55:17;;;;;;;10.73;6.50;;;30.30;77.40;;;;;;4973675;28;20142;-82
2023/06/18 10:58:04;;;;;;;10.20;6.50;;;30.30;75.90;;;;;;4957327;28;20106;-82
2023/06/18 11:00:40;;;;;;;10.95;6.90;;;30.40;75.70;;;;;;4956417;28;20047;-78
2023/06/18 11:03:11;;;;;;;10.32;6.20;;;30.50;77.00;;;;;;4974520;28;20042;-79
2023/06/18 11:05:51;;;;;;;11.07;6.32;;;30.50;76.10;;;;;;4974178;28;20096;-77
2023/06/18 11:08:28;;;;;;;11.73;6.15;;;30.50;75.60;;;;;;4965907;28;20214;-79
2023/06/18 11:11:06;;;;;;;11.13;6.93;;;30.70;73.70;;;;;;4968658;28;20074;-80
2023/06/18 11:13:36;;;;;;;12.30;7.20;;;30.60;74.70;;;;;;4963536;28;20047;-79
2023/06/18 11:16:05;;;;;;;11.73;6.93;;;30.50;73.80;;;;;;4962103;28;20054;-79
2023/06/18 11:18:31;;;;;;;11.57;6.82;;;30.30;75.20;;;;;;4986206;28;20073;-80
2023/06/18 11:20:57;;;;;;;12.02;7.15;;;30.10;75.40;;;;;;4965785;28;20486;-80
2023/06/18 11:23:28;;;;;;;11.32;7.35;;;30.20;75.30;;;;;;4965802;28;20085;-79
2023/06/18 11:25:54;;;;;;;11.43;7.35;;;30.10;75.00;;;;;;4963789;28;20499;-79
2023/06/18 11:28:21;;;;;;;10.65;7.07;;;30.00;75.50;;;;;;4965371;28;20502;-79
2023/06/18 11:30:51;;;;;;;11.48;6.90;;;29.80;76.00;;;;;;4982699;28;20441;-79
2023/06/18 11:33:25;;;;;;;12.93;6.78;;;29.70;76.70;;;;;;4967372;28;20065;-79
2023/06/18 11:35:51;;;;;;;12.75;7.28;;;29.70;77.00;;;;;;4985274;28;20073;-80
2023/06/18 11:38:21;;;;;;;13.50;7.38;;;29.70;77.30;;;;;;4982555;28;20057;-79
2023/06/18 11:40:52;;;;;;;10.48;7.00;;;29.70;76.90;;;;;;4965133;28;20045;-79
2023/06/18 11:43:19;;;;;;;16.00;6.80;;;29.90;76.80;;;;;;4964562;28;20560;-79
2023/06/18 11:45:49;;;;;;;11.82;7.40;;;29.70;76.80;;;;;;4984832;28;20159;-79
2023/06/18 11:48:18;;;;;;;11.23;6.95;;;29.70;76.10;;;;;;4981867;28;20043;-79
2023/06/18 11:50:46;;;;;;;10.35;6.95;;;29.70;76.80;;;;;;4981101;28;20507;-79
2023/06/18 11:53:12;;;;;;;11.52;6.93;;;29.70;76.40;;;;;;4964446;28;20078;-79
2023/06/18 11:55:38;;;;;;;11.75;7.35;;;29.80;76.50;;;;;;4964876;28;20113;-79
2023/06/18 11:58:05;;;;;;;12.57;7.20;;;29.90;76.40;;;;;;4984281;28;20173;-79
2023/06/18 12:00:31;;;;;;;10.43;7.10;;;29.90;76.40;;;;;;4991259;28;20548;-78
2023/06/18 12:03:00;;;;;;;11.60;7.00;;;30.20;76.50;;;;;;4975289;28;20144;-79
2023/06/18 12:05:33;;;;;;;11.00;6.72;;;30.30;75.80;;;;;;4989321;28;20125;-79
2023/06/18 12:08:10;;;;;;;11.13;7.30;;;30.50;76.20;;;;;;4963502;28;20069;-80
2023/06/18 12:10:40;;;;;;;11.05;7.18;;;30.70;76.60;;;;;;4978260;28;20038;-78
2023/06/18 12:13:16;;;;;;;11.95;7.30;;;30.90;75.70;;;;;;4980861;28;20046;-79
2023/06/18 12:16:00;;;;;;;10.85;7.03;;;30.90;74.50;;;;;;4964698;28;20128;-79
2023/06/18 12:18:33;;;;;;;11.90;6.93;;;30.90;74.20;;;;;;4964878;28;20479;-80
2023/06/18 12:20:59;;;;;;;12.02;6.88;;;31.10;74.90;;;;;;4964946;28;20051;-80
2023/06/18 12:23:26;;;;;;;10.80;6.97;;;30.80;75.00;;;;;;4981996;28;20561;-78
2023/06/18 12:25:51;;;;;;;10.25;6.90;;;30.60;75.80;;;;;;4963436;28;20057;-78
2023/06/18 12:28:24;;;;;;;11.45;7.38;;;30.80;75.20;;;;;;4965795;28;20046;-79
2023/06/18 12:30:53;;;;;;;10.55;6.90;;;30.80;74.60;;;;;;5017484;23;20055;-80
2023/06/18 12:33:51;;;;;;;13.00;7.68;;;31.10;74.30;;;;;;4968483;23;20402;-79
2023/06/18 12:36:33;;;;;;;11.05;7.80;;;31.30;73.30;;;;;;4965127;28;20119;-78
2023/06/18 12:39:12;;;;;;;11.43;7.10;;;31.40;73.60;;;;;;4967923;28;20047;-78
2023/06/18 12:41:44;;;;;;;10.98;7.00;;;31.40;73.80;;;;;;4985284;28;20460;-80
2023/06/18 12:44:17;;;;;;;12.02;7.68;;;31.50;73.20;;;;;;4975072;28;20046;-80
2023/06/18 12:46:50;;;;;;;11.30;7.20;;;31.60;73.80;;;;;;4969609;28;20537;-80
2023/06/18 12:49:58;;;;;;;13.18;7.10;;;31.90;72.90;;;;;;4975509;28;20039;-80
2023/06/18 12:52:30;;;;;;;9.93;6.55;;;32.10;72.20;;;;;;4955434;28;20055;-80
2023/06/18 12:54:59;;;;;;;11.00;6.82;;;32.20;72.80;;;;;;4954679;28;20372;-80
2023/06/18 12:58:34;;;;;;;12.20;6.63;;;32.10;72.20;;;;;;4943925;28;20054;-85
2023/06/18 13:01:15;;;;;;;12.18;7.07;;;32.20;71.40;;;;;;4915095;29;20051;-81
2023/06/18 13:04:12;;;;;;;11.93;6.70;;;32.20;72.20;;;;;;4904220;29;20050;-81